Time;durP1;ratioP1;P1;durP2;ratioP2;P2;SDS_P1;SDS_P2;PMS_P1;PMS_P2;Temp;Humidity;BMP_temperature;BMP_pressure;BME280_temperature;BME280_humidity;BME280_pressure;Samples;Min_cycle;Max_cycle;Signal;HPM_P1;HPM_P2
2021/11/27 00:00:15;;;;;;;2.87;1.67;;;8.90;90.50;;;;;;4971786;28;20476;-69
2021/11/27 00:02:42;;;;;;;4.57;1.30;;;8.90;90.30;;;;;;4973688;28;20023;-70
2021/11/27 00:05:08;;;;;;;2.87;1.40;;;8.90;90.30;;;;;;4973422;28;20027;-69
2021/11/27 00:07:34;;;;;;;2.03;1.07;;;8.90;90.30;;;;;;4973750;28;20411;-69
2021/11/27 00:09:59;;;;;;;1.70;1.13;;;8.90;90.20;;;;;;4973428;28;20023;-70
2021/11/27 00:12:25;;;;;;;1.80;1.10;;;8.90;90.10;;;;;;4973591;28;20106;-70
2021/11/27 00:14:51;;;;;;;1.23;0.80;;;8.80;90.10;;;;;;4973573;28;20102;-70
2021/11/27 00:17:17;;;;;;;1.23;0.77;;;8.90;90.10;;;;;;4973791;28;20027;-69
2021/11/27 00:19:43;;;;;;;1.03;0.70;;;8.90;90.00;;;;;;4976647;28;20027;-69
2021/11/27 00:22:09;;;;;;;1.03;0.80;;;8.90;90.00;;;;;;4976968;28;20078;-69
2021/11/27 00:24:35;;;;;;;1.13;0.60;;;8.90;89.80;;;;;;4977178;28;20407;-69
2021/11/27 00:27:00;;;;;;;3.03;0.80;;;8.90;89.90;;;;;;4976721;28;20031;-69
2021/11/27 00:29:26;;;;;;;2.27;0.90;;;8.90;89.90;;;;;;4976485;28;20411;-69
2021/11/27 00:31:52;;;;;;;1.63;1.10;;;8.80;90.00;;;;;;4976598;28;20170;-69
2021/11/27 00:34:18;;;;;;;0.77;0.70;;;8.80;90.10;;;;;;4976722;28;20392;-69
2021/11/27 00:36:44;;;;;;;1.57;1.10;;;8.80;90.10;;;;;;4976904;28;20360;-69
2021/11/27 00:39:11;;;;;;;2.17;0.93;;;8.80;90.10;;;;;;4976593;28;20106;-69
2021/11/27 00:41:37;;;;;;;1.57;0.93;;;8.80;90.10;;;;;;4976543;28;20522;-69
2021/11/27 00:44:03;;;;;;;2.67;0.83;;;8.80;90.10;;;;;;4976577;28;20026;-69
2021/11/27 00:46:29;;;;;;;1.50;0.90;;;8.80;90.20;;;;;;4976633;28;20428;-69
2021/11/27 00:48:55;;;;;;;1.03;0.77;;;8.80;90.20;;;;;;4976412;28;20039;-69
2021/11/27 00:51:23;;;;;;;0.93;0.70;;;8.70;90.20;;;;;;4976389;28;20077;-69
2021/11/27 00:53:50;;;;;;;0.93;0.80;;;8.80;90.10;;;;;;4976324;28;20031;-69
2021/11/27 00:56:16;;;;;;;1.00;0.60;;;8.80;90.10;;;;;;4976429;28;20395;-69
2021/11/27 00:58:43;;;;;;;1.33;0.83;;;8.80;90.10;;;;;;4976503;28;20543;-69
2021/11/27 01:01:13;;;;;;;1.17;0.90;;;8.80;90.10;;;;;;4976171;28;20023;-70
2021/11/27 01:03:41;;;;;;;1.50;0.90;;;8.80;90.20;;;;;;4976013;28;20488;-69
2021/11/27 01:06:10;;;;;;;1.80;1.00;;;8.80;90.20;;;;;;4975607;28;20026;-70
2021/11/27 01:08:36;;;;;;;0.97;0.70;;;8.80;90.20;;;;;;4975239;28;20412;-70
2021/11/27 01:11:05;;;;;;;1.27;0.80;;;8.80;90.10;;;;;;4976161;28;20074;-69
2021/11/27 01:13:32;;;;;;;4.43;0.93;;;8.80;90.20;;;;;;4975969;28;20023;-72
2021/11/27 01:16:00;;;;;;;2.27;0.90;;;8.80;90.20;;;;;;4975924;28;20377;-69
2021/11/27 01:18:26;;;;;;;1.53;1.00;;;8.80;90.30;;;;;;4975813;28;20085;-69
2021/11/27 01:20:56;;;;;;;1.40;0.80;;;8.80;90.30;;;;;;4975606;28;20482;-69
2021/11/27 01:23:23;;;;;;;2.70;0.90;;;8.80;90.30;;;;;;4975940;28;20575;-69
2021/11/27 01:25:48;;;;;;;1.90;0.90;;;8.80;90.30;;;;;;4975699;28;20027;-69
2021/11/27 01:28:17;;;;;;;2.67;0.73;;;8.80;90.60;;;;;;4975906;28;20041;-70
2021/11/27 01:30:45;;;;;;;1.00;0.83;;;8.80;90.60;;;;;;4974702;28;20030;-69
2021/11/27 01:33:11;;;;;;;1.53;0.83;;;8.80;90.70;;;;;;4975622;28;20066;-69
2021/11/27 01:35:37;;;;;;;2.37;0.90;;;8.80;90.70;;;;;;4975603;28;20054;-69
2021/11/27 01:38:03;;;;;;;2.13;1.00;;;8.80;90.80;;;;;;4975211;28;20406;-69
2021/11/27 01:40:29;;;;;;;4.43;1.10;;;8.80;90.80;;;;;;4975216;28;20023;-69
2021/11/27 01:42:55;;;;;;;1.70;0.80;;;8.70;90.80;;;;;;4975444;28;20110;-69
2021/11/27 01:45:23;;;;;;;3.30;1.07;;;8.70;90.90;;;;;;4975294;28;20078;-70
2021/11/27 01:47:52;;;;;;;2.57;0.90;;;8.70;91.00;;;;;;4975174;28;20043;-69
2021/11/27 01:50:19;;;;;;;3.17;0.87;;;8.70;91.10;;;;;;4975378;28;20078;-69
2021/11/27 01:52:45;;;;;;;3.33;0.80;;;8.70;91.10;;;;;;4975446;28;20034;-69
2021/11/27 01:55:11;;;;;;;2.17;0.90;;;8.70;91.10;;;;;;4975300;28;20034;-69
2021/11/27 01:57:37;;;;;;;1.33;1.00;;;8.70;91.20;;;;;;4974435;28;20031;-69
2021/11/27 02:00:09;;;;;;;2.63;1.50;;;8.70;91.30;;;;;;4972361;28;20445;-69
2021/11/27 02:02:34;;;;;;;3.83;1.30;;;8.70;91.50;;;;;;4972038;28;20033;-69
2021/11/27 02:05:00;;;;;;;2.87;1.40;;;8.70;91.60;;;;;;4973425;28;20460;-69
2021/11/27 02:07:26;;;;;;;2.00;1.30;;;8.70;91.50;;;;;;4974479;28;20473;-69
2021/11/27 02:09:52;;;;;;;2.43;1.57;;;8.70;91.40;;;;;;4974663;28;20039;-69
2021/11/27 02:12:17;;;;;;;4.57;1.57;;;8.70;91.50;;;;;;4974044;28;20102;-69
2021/11/27 02:14:43;;;;;;;1.00;0.90;;;8.60;91.50;;;;;;4973339;28;20450;-69
2021/11/27 02:17:10;;;;;;;1.67;1.17;;;8.60;91.50;;;;;;4974790;28;20035;-69
2021/11/27 02:19:37;;;;;;;2.03;1.00;;;8.70;91.50;;;;;;4974569;28;20019;-69
2021/11/27 02:22:04;;;;;;;1.93;0.97;;;8.70;91.40;;;;;;4974346;28;20019;-69
2021/11/27 02:24:30;;;;;;;1.80;0.93;;;8.70;91.30;;;;;;4974785;28;20019;-70
2021/11/27 02:26:56;;;;;;;1.93;0.90;;;8.70;91.40;;;;;;4973715;28;20038;-70
2021/11/27 02:29:25;;;;;;;2.37;1.10;;;8.70;91.40;;;;;;4973975;28;20019;-69
2021/11/27 02:31:53;;;;;;;1.73;1.20;;;8.60;91.60;;;;;;4972571;28;20411;-69
2021/11/27 02:34:18;;;;;;;5.27;1.30;;;8.70;91.70;;;;;;4974304;28;20182;-69
2021/11/27 02:36:49;;;;;;;3.10;1.23;;;8.60;91.70;;;;;;4974120;28;20562;-68
2021/11/27 02:39:16;;;;;;;2.17;1.20;;;8.60;91.70;;;;;;4974291;28;20038;-69
2021/11/27 02:41:42;;;;;;;1.63;1.07;;;8.70;91.80;;;;;;4974148;28;20019;-69
2021/11/27 02:44:09;;;;;;;2.30;1.00;;;8.70;91.70;;;;;;4974390;28;20027;-68
2021/11/27 02:46:37;;;;;;;4.83;1.30;;;8.70;91.70;;;;;;4974392;28;20468;-69
2021/11/27 02:49:03;;;;;;;1.93;1.10;;;8.60;91.70;;;;;;4974113;28;20050;-69
2021/11/27 02:51:30;;;;;;;2.10;1.07;;;8.60;91.80;;;;;;4956636;28;20034;-69
2021/11/27 02:53:56;;;;;;;4.03;1.10;;;8.60;91.80;;;;;;4974137;28;20081;-69
2021/11/27 02:56:22;;;;;;;2.17;0.93;;;8.60;91.90;;;;;;4974669;28;20026;-69
2021/11/27 02:58:47;;;;;;;2.63;1.20;;;8.60;91.80;;;;;;4974292;28;20029;-69
2021/11/27 03:01:14;;;;;;;2.93;1.10;;;8.60;91.80;;;;;;4974207;28;20031;-69
2021/11/27 03:03:40;;;;;;;2.77;1.20;;;8.60;91.80;;;;;;4974046;28;20568;-69
2021/11/27 03:06:06;;;;;;;5.33;1.40;;;8.60;91.90;;;;;;4974142;28;20514;-69
2021/11/27 03:08:33;;;;;;;2.53;1.30;;;8.60;92.00;;;;;;4973614;28;20055;-69
2021/11/27 03:11:00;;;;;;;3.10;1.30;;;8.60;92.10;;;;;;4973990;28;20413;-69
2021/11/27 03:13:28;;;;;;;1.77;1.33;;;8.60;92.20;;;;;;4974168;28;20031;-69
2021/11/27 03:15:54;;;;;;;1.57;1.10;;;8.60;92.20;;;;;;4974132;28;20023;-69
2021/11/27 03:18:20;;;;;;;6.50;1.30;;;8.60;92.30;;;;;;4972594;28;20026;-69
2021/11/27 03:20:46;;;;;;;3.93;1.50;;;8.60;92.50;;;;;;4973237;28;20098;-69
2021/11/27 03:23:11;;;;;;;1.40;1.10;;;8.60;92.50;;;;;;4974129;28;20418;-69
2021/11/27 03:25:37;;;;;;;6.37;1.13;;;8.60;92.50;;;;;;4973559;28;20034;-70
2021/11/27 03:28:04;;;;;;;1.40;1.00;;;8.60;92.60;;;;;;4973022;28;20066;-69
2021/11/27 03:30:30;;;;;;;2.03;1.07;;;8.60;92.60;;;;;;4973593;28;20023;-69
2021/11/27 03:32:55;;;;;;;2.10;1.00;;;8.60;92.60;;;;;;4973837;28;20082;-69
2021/11/27 03:35:22;;;;;;;2.03;1.00;;;8.60;92.60;;;;;;4973835;28;20098;-69
2021/11/27 03:37:48;;;;;;;1.27;0.90;;;8.70;92.70;;;;;;4973853;28;20098;-69
2021/11/27 03:40:14;;;;;;;2.47;1.03;;;8.70;92.60;;;;;;4973560;28;20031;-69
2021/11/27 03:42:40;;;;;;;3.30;1.00;;;8.70;92.60;;;;;;4973834;28;20035;-69
2021/11/27 03:45:09;;;;;;;1.33;0.83;;;8.70;92.60;;;;;;4973726;28;20387;-69
2021/11/27 03:47:35;;;;;;;2.13;1.03;;;8.70;92.50;;;;;;4973781;28;20102;-69
2021/11/27 03:50:00;;;;;;;3.67;0.97;;;8.80;92.50;;;;;;4973521;28;20476;-69
2021/11/27 03:52:26;;;;;;;1.57;1.00;;;8.70;92.60;;;;;;4973639;28;20030;-69
2021/11/27 03:54:52;;;;;;;1.10;0.80;;;8.70;92.60;;;;;;4977722;28;20089;-69
2021/11/27 03:57:18;;;;;;;0.83;0.70;;;8.70;92.60;;;;;;4977469;28;20034;-69
2021/11/27 03:59:44;;;;;;;1.00;0.80;;;8.70;92.70;;;;;;4977189;28;20140;-69
2021/11/27 04:02:10;;;;;;;0.73;0.70;;;8.70;92.70;;;;;;4976684;28;20023;-69
2021/11/27 04:04:38;;;;;;;3.43;1.20;;;8.80;92.70;;;;;;4976598;28;20027;-69
2021/11/27 04:07:05;;;;;;;1.23;0.90;;;8.80;92.70;;;;;;4976802;28;20121;-69
2021/11/27 04:09:32;;;;;;;3.80;1.07;;;8.80;92.60;;;;;;4977053;28;20035;-69
2021/11/27 04:11:58;;;;;;;2.00;1.20;;;8.80;92.60;;;;;;4977328;28;20030;-69
2021/11/27 04:14:24;;;;;;;2.70;1.30;;;8.80;92.70;;;;;;4976834;28;20306;-69
2021/11/27 04:16:50;;;;;;;2.20;1.00;;;8.80;92.70;;;;;;4976147;28;20101;-69
2021/11/27 04:19:16;;;;;;;1.43;1.10;;;8.80;92.70;;;;;;4977090;28;20378;-69
2021/11/27 04:21:42;;;;;;;3.23;1.37;;;8.80;92.70;;;;;;4977021;28;20085;-69
2021/11/27 04:24:07;;;;;;;1.80;1.20;;;8.80;92.70;;;;;;4976961;28;20065;-69
2021/11/27 04:26:33;;;;;;;1.93;1.10;;;8.80;92.60;;;;;;4976842;28;20027;-70
2021/11/27 04:29:00;;;;;;;1.73;1.00;;;8.80;92.50;;;;;;4976846;28;20404;-69
2021/11/27 04:31:26;;;;;;;1.97;1.20;;;8.80;92.40;;;;;;4959415;28;20054;-69
2021/11/27 04:33:52;;;;;;;1.10;0.90;;;8.80;92.40;;;;;;4976634;28;20030;-70
2021/11/27 04:36:20;;;;;;;2.47;0.90;;;8.80;92.30;;;;;;4976742;28;20041;-69
2021/11/27 04:38:47;;;;;;;1.47;1.00;;;8.70;92.30;;;;;;4976606;28;20081;-69
2021/11/27 04:41:13;;;;;;;1.27;1.03;;;8.70;92.30;;;;;;4976675;28;20518;-69
2021/11/27 04:43:38;;;;;;;1.47;1.00;;;8.70;92.40;;;;;;4976724;28;20031;-69
2021/11/27 04:46:04;;;;;;;1.73;1.20;;;8.60;92.30;;;;;;4976274;28;20515;-69
2021/11/27 04:48:30;;;;;;;1.70;1.00;;;8.70;92.30;;;;;;4976468;28;20403;-69
2021/11/27 04:50:56;;;;;;;1.83;1.00;;;8.60;92.30;;;;;;4976609;28;20453;-69
2021/11/27 04:53:22;;;;;;;4.03;1.23;;;8.60;92.40;;;;;;4976418;28;20027;-70
2021/11/27 04:55:48;;;;;;;1.33;1.00;;;8.60;92.30;;;;;;4976604;28;20034;-69
2021/11/27 04:58:14;;;;;;;3.27;1.00;;;8.60;92.40;;;;;;4958848;28;20077;-70
2021/11/27 05:00:43;;;;;;;3.63;0.90;;;8.60;92.70;;;;;;4976215;28;20398;-69
2021/11/27 05:03:08;;;;;;;3.83;1.30;;;8.60;92.90;;;;;;4976209;28;20045;-70
2021/11/27 05:05:35;;;;;;;4.30;1.20;;;8.70;92.80;;;;;;4975732;28;20023;-69
2021/11/27 05:08:00;;;;;;;1.10;1.00;;;8.70;92.80;;;;;;4975689;28;20050;-69
2021/11/27 05:10:26;;;;;;;3.30;0.80;;;8.70;92.80;;;;;;4975603;28;20034;-69
2021/11/27 05:12:53;;;;;;;2.23;1.10;;;8.70;92.80;;;;;;4975908;28;20055;-69
2021/11/27 05:15:19;;;;;;;5.70;1.43;;;8.80;92.80;;;;;;4975831;28;20023;-69
2021/11/27 05:17:45;;;;;;;5.13;1.53;;;8.80;92.70;;;;;;4975712;28;20372;-69
2021/11/27 05:20:12;;;;;;;3.50;2.10;;;8.80;92.60;;;;;;4958723;28;20027;-70
2021/11/27 05:22:38;;;;;;;4.60;1.70;;;8.80;92.60;;;;;;4975755;28;20015;-69
2021/11/27 05:25:05;;;;;;;2.83;1.30;;;8.80;92.50;;;;;;4975469;28;20110;-69
2021/11/27 05:27:31;;;;;;;3.67;1.97;;;8.90;92.40;;;;;;4974203;28;20025;-69
2021/11/27 05:29:57;;;;;;;4.90;1.20;;;8.90;92.50;;;;;;4975553;28;20101;-69
2021/11/27 05:32:37;;;;;;;3.33;1.17;;;8.90;92.50;;;;;;4975860;28;20019;-69
2021/11/27 05:35:03;;;;;;;4.30;1.60;;;8.90;92.40;;;;;;4975257;28;20119;-69
2021/11/27 05:37:29;;;;;;;3.40;1.57;;;8.90;92.40;;;;;;4974507;28;20034;-69
2021/11/27 05:39:55;;;;;;;7.43;1.20;;;8.90;92.50;;;;;;4975579;28;20027;-69
2021/11/27 05:42:21;;;;;;;3.50;1.37;;;8.80;92.50;;;;;;4975234;28;20023;-69
2021/11/27 05:44:48;;;;;;;3.57;1.50;;;8.80;92.60;;;;;;4975279;28;20391;-69
2021/11/27 05:47:14;;;;;;;9.17;1.70;;;8.80;92.60;;;;;;4975195;28;20492;-70
2021/11/27 05:49:40;;;;;;;8.10;1.73;;;8.90;92.60;;;;;;4975563;28;20121;-69
2021/11/27 05:52:06;;;;;;;12.57;2.63;;;8.90;92.50;;;;;;4975261;28;20033;-70
2021/11/27 05:54:32;;;;;;;5.37;1.70;;;8.90;92.50;;;;;;4975520;28;20033;-69
2021/11/27 05:56:58;;;;;;;6.83;1.70;;;8.90;92.50;;;;;;4975154;28;20027;-69
2021/11/27 05:59:23;;;;;;;8.90;2.00;;;9.00;92.50;;;;;;4975122;28;20117;-69
2021/11/27 06:01:49;;;;;;;12.47;2.33;;;9.00;92.40;;;;;;4974852;28;20040;-69
2021/11/27 06:04:15;;;;;;;17.90;2.77;;;9.00;92.30;;;;;;4974951;28;20034;-69
2021/11/27 06:06:41;;;;;;;18.83;3.30;;;9.00;92.10;;;;;;4975052;28;20085;-69
2021/11/27 06:09:06;;;;;;;13.63;3.00;;;9.10;91.80;;;;;;4974954;28;20558;-69
2021/11/27 06:11:32;;;;;;;9.07;2.20;;;9.10;91.70;;;;;;4974864;28;20027;-69
2021/11/27 06:13:58;;;;;;;12.43;2.70;;;9.10;92.00;;;;;;4974676;28;20062;-69
2021/11/27 06:16:23;;;;;;;6.80;1.90;;;9.10;92.00;;;;;;4974050;28;20026;-69
2021/11/27 06:18:49;;;;;;;8.30;2.37;;;9.10;92.00;;;;;;4974782;28;20030;-69
2021/11/27 06:21:20;;;;;;;9.27;2.40;;;9.10;92.20;;;;;;4973560;28;20180;-69
2021/11/27 06:23:47;;;;;;;9.63;2.30;;;9.10;92.20;;;;;;4974630;28;20034;-69
2021/11/27 06:26:13;;;;;;;9.07;2.53;;;9.10;92.20;;;;;;4957040;28;20396;-69
2021/11/27 06:28:38;;;;;;;12.67;2.87;;;9.00;92.30;;;;;;4974754;28;20038;-69
2021/11/27 06:31:04;;;;;;;8.47;2.50;;;9.00;92.40;;;;;;4974545;28;20069;-69
2021/11/27 06:33:30;;;;;;;11.07;2.20;;;9.00;92.40;;;;;;4974474;28;20081;-70
2021/11/27 06:35:56;;;;;;;19.03;3.50;;;9.00;92.50;;;;;;4974362;28;20150;-69
2021/11/27 06:38:22;;;;;;;14.47;3.03;;;9.00;92.30;;;;;;4974994;28;20065;-70
2021/11/27 06:40:49;;;;;;;10.97;2.47;;;9.00;92.40;;;;;;4974261;28;20027;-69
2021/11/27 06:43:15;;;;;;;15.83;3.27;;;9.00;92.50;;;;;;4974352;28;20034;-69
2021/11/27 06:45:41;;;;;;;12.57;3.37;;;9.00;92.50;;;;;;4974267;28;20101;-69
2021/11/27 06:48:06;;;;;;;17.30;3.00;;;9.00;92.20;;;;;;4974366;28;20042;-69
2021/11/27 06:50:32;;;;;;;17.30;3.47;;;9.10;92.30;;;;;;4974209;28;20023;-69
2021/11/27 06:52:58;;;;;;;12.77;3.67;;;9.10;92.40;;;;;;4974340;28;20023;-69
2021/11/27 06:55:23;;;;;;;22.37;4.83;;;9.10;92.50;;;;;;4974406;28;20503;-69
2021/11/27 06:57:49;;;;;;;16.00;3.80;;;9.10;92.60;;;;;;4974067;28;20031;-69
2021/11/27 07:00:15;;;;;;;10.43;2.70;;;9.10;92.60;;;;;;4974229;28;20065;-70
2021/11/27 07:02:41;;;;;;;10.43;3.20;;;9.00;92.50;;;;;;4974267;28;20027;-68
2021/11/27 07:05:07;;;;;;;12.80;3.10;;;9.00;92.50;;;;;;4974137;28;20023;-69
2021/11/27 07:07:32;;;;;;;18.67;3.63;;;9.00;92.50;;;;;;4973861;28;20050;-69
2021/11/27 07:09:58;;;;;;;11.87;3.30;;;9.00;92.30;;;;;;4974072;28;20023;-69
2021/11/27 07:12:24;;;;;;;24.83;3.60;;;9.00;92.20;;;;;;4974270;28;20102;-70
2021/11/27 07:14:50;;;;;;;23.47;3.53;;;9.00;92.20;;;;;;4974342;28;20030;-69
2021/11/27 07:17:16;;;;;;;18.47;2.60;;;9.10;92.20;;;;;;4973957;28;20026;-69
2021/11/27 07:19:41;;;;;;;25.50;2.93;;;9.10;92.10;;;;;;4974200;28;20034;-70
2021/11/27 07:22:07;;;;;;;16.03;3.13;;;9.10;92.00;;;;;;4974089;28;20498;-69
2021/11/27 07:24:33;;;;;;;16.40;3.40;;;9.20;91.70;;;;;;4974255;28;20088;-69
2021/11/27 07:27:03;;;;;;;17.13;3.17;;;9.20;91.30;;;;;;4974277;28;20531;-69
2021/11/27 07:29:32;;;;;;;14.27;2.60;;;9.20;91.00;;;;;;4977398;28;20034;-68
2021/11/27 07:31:59;;;;;;;10.73;2.07;;;9.20;90.20;;;;;;4978243;28;20073;-69
2021/11/27 07:34:24;;;;;;;16.43;2.53;;;9.20;89.90;;;;;;4960503;28;20046;-69
2021/11/27 07:36:50;;;;;;;11.27;3.00;;;9.20;89.40;;;;;;4977474;28;20027;-69
2021/11/27 07:39:16;;;;;;;14.40;2.57;;;9.30;89.60;;;;;;4977967;28;20023;-69
2021/11/27 07:41:41;;;;;;;18.30;3.23;;;9.30;88.50;;;;;;4977828;28;20035;-69
2021/11/27 07:44:07;;;;;;;21.27;3.10;;;9.40;88.00;;;;;;4977997;28;20029;-69
2021/11/27 07:46:33;;;;;;;18.23;2.77;;;9.40;89.00;;;;;;4977718;28;20113;-69
2021/11/27 07:48:59;;;;;;;14.93;2.93;;;9.40;89.40;;;;;;4977759;28;20471;-69
2021/11/27 07:51:25;;;;;;;21.97;3.20;;;9.50;89.80;;;;;;4977404;28;20026;-68
2021/11/27 07:53:51;;;;;;;12.90;3.47;;;9.50;90.40;;;;;;4977288;28;20046;-68
2021/11/27 07:56:17;;;;;;;18.97;2.47;;;9.50;90.50;;;;;;4976954;28;20368;-68
2021/11/27 07:58:43;;;;;;;20.53;3.20;;;9.60;90.10;;;;;;4974619;28;20041;-69
2021/11/27 08:01:08;;;;;;;19.47;3.17;;;9.50;90.10;;;;;;4977484;28;20035;-68
2021/11/27 08:03:34;;;;;;;18.10;3.27;;;9.60;90.00;;;;;;4977559;28;20463;-68
2021/11/27 08:06:00;;;;;;;19.47;3.90;;;9.60;90.00;;;;;;4977745;28;20030;-68
2021/11/27 08:08:26;;;;;;;21.73;4.10;;;9.60;90.30;;;;;;4977230;28;20131;-68
2021/11/27 08:10:52;;;;;;;20.73;4.07;;;9.60;90.40;;;;;;4977022;28;20027;-68
2021/11/27 08:13:18;;;;;;;22.17;4.50;;;9.70;90.80;;;;;;4976960;28;20062;-69
2021/11/27 08:15:43;;;;;;;20.60;4.40;;;9.70;90.90;;;;;;4959822;28;20027;-68
2021/11/27 08:18:09;;;;;;;15.67;3.60;;;9.70;90.80;;;;;;4977369;28;20073;-68
2021/11/27 08:20:35;;;;;;;19.23;4.60;;;9.70;90.70;;;;;;4977217;28;20031;-68
2021/11/27 08:23:01;;;;;;;18.03;5.33;;;9.70;90.60;;;;;;4977068;28;20026;-68
2021/11/27 08:25:27;;;;;;;19.03;4.40;;;9.80;90.60;;;;;;4977260;28;20029;-68
2021/11/27 08:27:53;;;;;;;25.60;4.00;;;9.80;90.70;;;;;;4976951;28;20039;-69
2021/11/27 08:30:19;;;;;;;21.10;4.97;;;9.70;90.80;;;;;;4959731;28;20027;-68
2021/11/27 08:32:49;;;;;;;16.30;3.97;;;9.70;91.20;;;;;;4977022;28;20432;-68
2021/11/27 08:35:16;;;;;;;22.07;4.27;;;9.70;91.20;;;;;;4976822;28;20029;-69
2021/11/27 08:37:43;;;;;;;19.53;3.33;;;9.70;91.20;;;;;;4977084;28;20034;-68
2021/11/27 08:40:10;;;;;;;14.63;3.63;;;9.70;91.30;;;;;;4976464;28;20115;-69
2021/11/27 08:42:36;;;;;;;28.80;4.53;;;9.70;91.20;;;;;;4976983;28;20067;-68
2021/11/27 08:45:02;;;;;;;19.77;5.27;;;9.70;91.80;;;;;;4976726;28;20030;-68
2021/11/27 08:47:28;;;;;;;21.30;5.23;;;9.70;91.70;;;;;;4976619;28;20031;-68
2021/11/27 08:49:55;;;;;;;24.50;5.47;;;9.70;91.70;;;;;;4976718;28;20030;-68
2021/11/27 08:52:21;;;;;;;20.87;4.30;;;9.70;91.60;;;;;;4976845;28;20022;-68
2021/11/27 08:54:47;;;;;;;23.87;4.00;;;9.80;91.60;;;;;;4976776;28;20082;-69
2021/11/27 08:57:13;;;;;;;19.10;4.07;;;9.80;91.50;;;;;;4976493;28;20030;-68
2021/11/27 08:59:38;;;;;;;16.60;3.67;;;9.80;91.40;;;;;;4976657;28;20076;-68
2021/11/27 09:02:05;;;;;;;18.80;3.63;;;9.80;91.30;;;;;;4976623;28;20110;-68
2021/11/27 09:04:31;;;;;;;17.47;3.87;;;9.80;91.30;;;;;;4976354;28;20026;-69
2021/11/27 09:06:57;;;;;;;12.13;3.23;;;9.80;91.30;;;;;;4976388;28;20019;-68
2021/11/27 09:09:23;;;;;;;11.40;3.43;;;9.80;91.30;;;;;;4976165;28;20041;-68
2021/11/27 09:11:49;;;;;;;11.90;3.50;;;9.70;91.20;;;;;;4976484;28;20396;-68
2021/11/27 09:14:17;;;;;;;13.20;3.57;;;9.80;91.10;;;;;;4976200;28;20471;-68
2021/11/27 09:16:43;;;;;;;13.30;3.67;;;9.70;91.10;;;;;;4976261;28;20023;-68
2021/11/27 09:19:09;;;;;;;14.47;4.10;;;9.70;91.10;;;;;;4976007;28;20483;-69
2021/11/27 09:21:35;;;;;;;13.87;3.80;;;9.80;91.30;;;;;;4975990;28;20098;-68
2021/11/27 09:24:03;;;;;;;8.90;3.13;;;9.70;90.80;;;;;;4976222;28;20482;-68
2021/11/27 09:26:29;;;;;;;11.38;3.22;;;9.70;90.80;;;;;;4976297;28;20030;-68
2021/11/27 09:28:57;;;;;;;13.67;4.13;;;9.70;90.90;;;;;;4976126;28;20123;-69
2021/11/27 09:31:23;;;;;;;14.10;3.83;;;9.70;91.00;;;;;;4976012;28;20027;-68
2021/11/27 09:33:49;;;;;;;13.80;3.90;;;9.70;91.10;;;;;;4975724;28;20543;-68
2021/11/27 09:36:16;;;;;;;14.43;3.20;;;9.70;91.00;;;;;;4975786;28;20023;-68
2021/11/27 09:38:43;;;;;;;15.00;3.73;;;9.70;91.00;;;;;;4975877;28;20058;-68
2021/11/27 09:41:19;;;;;;;13.60;4.03;;;9.70;90.90;;;;;;4975833;28;20023;-68
2021/11/27 09:43:47;;;;;;;12.57;3.50;;;9.70;90.90;;;;;;4975933;28;20046;-69
2021/11/27 09:46:16;;;;;;;13.57;3.00;;;9.80;90.90;;;;;;4975777;28;20015;-68
2021/11/27 09:48:46;;;;;;;13.53;3.50;;;9.80;90.90;;;;;;4975953;28;20097;-68
2021/11/27 09:51:12;;;;;;;18.57;4.33;;;9.80;90.80;;;;;;4974734;28;20069;-68
2021/11/27 09:53:39;;;;;;;11.97;3.43;;;9.80;90.80;;;;;;4975514;28;20388;-68
2021/11/27 09:56:06;;;;;;;19.07;4.27;;;9.80;90.80;;;;;;4975524;28;20661;-68
2021/11/27 09:58:32;;;;;;;16.05;4.47;;;9.80;90.80;;;;;;4975735;28;20106;-68
2021/11/27 10:01:00;;;;;;;14.60;4.27;;;9.80;91.00;;;;;;4974998;28;20035;-68
2021/11/27 10:03:29;;;;;;;12.80;4.60;;;9.80;91.00;;;;;;4975413;28;20361;-68
2021/11/27 10:05:55;;;;;;;14.55;3.90;;;9.80;91.20;;;;;;4975403;28;20027;-68
2021/11/27 10:08:20;;;;;;;15.73;4.10;;;9.80;91.10;;;;;;4975056;28;20395;-68
2021/11/27 10:10:46;;;;;;;17.67;4.13;;;9.90;91.00;;;;;;4974973;28;20019;-68
2021/11/27 10:13:17;;;;;;;18.65;5.32;;;9.90;91.10;;;;;;4975175;28;20498;-68
2021/11/27 10:15:43;;;;;;;19.35;5.60;;;10.00;91.00;;;;;;4975035;28;20027;-69
2021/11/27 10:18:19;;;;;;;11.53;5.30;;;10.00;90.90;;;;;;4974995;28;20468;-69
2021/11/27 10:20:45;;;;;;;15.53;5.03;;;10.10;90.80;;;;;;4974933;28;20395;-68
2021/11/27 10:23:11;;;;;;;22.38;5.60;;;10.10;90.60;;;;;;4974878;28;20015;-68
2021/11/27 10:25:42;;;;;;;17.83;5.67;;;10.20;90.70;;;;;;4974912;28;20030;-68
2021/11/27 10:28:16;;;;;;;23.03;10.73;;;10.20;90.60;;;;;;4974805;28;20026;-68
2021/11/27 10:30:55;;;;;;;30.03;10.13;;;10.20;90.50;;;;;;4974865;28;20712;-68
2021/11/27 10:33:21;;;;;;;25.15;7.45;;;10.20;90.50;;;;;;4974564;28;20023;-68
2021/11/27 10:35:59;;;;;;;18.30;5.78;;;10.20;90.40;;;;;;4974418;28;20054;-68
2021/11/27 10:38:40;;;;;;;21.92;5.60;;;10.30;90.40;;;;;;4974437;28;20033;-69
2021/11/27 10:41:07;;;;;;;17.15;5.45;;;10.30;90.50;;;;;;4972040;28;20035;-70
2021/11/27 10:43:34;;;;;;;15.65;5.88;;;10.30;90.50;;;;;;4971837;28;20061;-68
2021/11/27 10:46:00;;;;;;;22.73;6.20;;;10.30;90.50;;;;;;4971984;28;20042;-68
2021/11/27 10:48:26;;;;;;;19.40;5.40;;;10.30;90.50;;;;;;4974024;28;20046;-69
2021/11/27 10:50:55;;;;;;;15.98;5.60;;;10.20;90.50;;;;;;4974300;28;20031;-68
2021/11/27 10:53:26;;;;;;;14.95;5.88;;;10.20;90.60;;;;;;4974251;28;20046;-67
2021/11/27 10:55:52;;;;;;;21.83;5.93;;;10.20;91.00;;;;;;4974038;28;20035;-67
2021/11/27 10:58:18;;;;;;;23.83;5.80;;;10.20;91.10;;;;;;4974432;28;20543;-66
2021/11/27 11:00:49;;;;;;;14.57;5.22;;;10.20;90.90;;;;;;4974215;28;20023;-68
2021/11/27 11:03:24;;;;;;;21.60;6.25;;;10.20;90.90;;;;;;4972732;28;20035;-68
2021/11/27 11:05:50;;;;;;;18.83;5.60;;;10.20;90.80;;;;;;4971510;28;20106;-68
2021/11/27 11:08:16;;;;;;;17.80;5.57;;;10.20;90.80;;;;;;4972067;28;20129;-69
2021/11/27 11:10:42;;;;;;;25.25;6.88;;;10.20;90.90;;;;;;4974297;28;20426;-68
2021/11/27 11:13:11;;;;;;;21.05;7.10;;;10.30;90.90;;;;;;4956954;28;20444;-68
2021/11/27 11:15:41;;;;;;;19.20;6.30;;;10.30;90.90;;;;;;4973920;28;20547;-68
2021/11/27 11:18:16;;;;;;;23.15;6.32;;;10.30;90.90;;;;;;4973923;28;20019;-68
2021/11/27 11:21:03;;;;;;;20.20;7.57;;;10.40;90.90;;;;;;4973931;28;20031;-68
2021/11/27 11:23:35;;;;;;;18.83;7.47;;;10.30;90.90;;;;;;4974166;28;20365;-69
2021/11/27 11:26:03;;;;;;;22.48;10.55;;;10.30;90.90;;;;;;4974003;28;20023;-68
2021/11/27 11:28:36;;;;;;;21.38;9.60;;;10.30;91.00;;;;;;4956515;28;20117;-70
2021/11/27 11:31:23;;;;;;;15.40;6.18;;;10.30;91.00;;;;;;4973848;28;20101;-68
2021/11/27 11:33:52;;;;;;;15.20;6.43;;;10.40;91.10;;;;;;4974023;28;20135;-68
2021/11/27 11:36:20;;;;;;;12.70;6.30;;;10.30;91.00;;;;;;4974229;28;20107;-69
2021/11/27 11:38:54;;;;;;;20.92;6.63;;;10.30;91.20;;;;;;4973845;28;20109;-68
2021/11/27 11:41:22;;;;;;;18.85;7.68;;;10.30;91.10;;;;;;4973198;28;20073;-68
2021/11/27 11:43:50;;;;;;;17.67;8.00;;;10.30;91.10;;;;;;4973771;28;20035;-67
2021/11/27 11:46:17;;;;;;;17.25;7.50;;;10.30;91.20;;;;;;4973924;28;20027;-68
2021/11/27 11:48:50;;;;;;;17.57;8.00;;;10.30;91.20;;;;;;4956442;28;20042;-70
2021/11/27 11:51:40;;;;;;;18.80;7.32;;;10.30;91.20;;;;;;4973418;28;20038;-67
2021/11/27 11:54:08;;;;;;;20.80;8.73;;;10.30;91.40;;;;;;4973611;28;20031;-67
2021/11/27 11:56:40;;;;;;;22.55;9.65;;;10.30;91.50;;;;;;4973686;28;20027;-67
2021/11/27 11:59:27;;;;;;;16.20;8.68;;;10.20;91.50;;;;;;4973463;28;20023;-68
2021/11/27 12:02:22;;;;;;;15.65;8.20;;;10.30;91.50;;;;;;4973690;28;20053;-67
2021/11/27 12:05:07;;;;;;;15.30;6.15;;;10.20;91.50;;;;;;4973548;28;20031;-67
2021/11/27 12:07:48;;;;;;;15.93;7.37;;;10.20;91.50;;;;;;4973619;28;20047;-67
2021/11/27 12:10:51;;;;;;;30.23;15.07;;;10.20;91.40;;;;;;4973528;28;20227;-67
2021/11/27 12:13:22;;;;;;;15.38;7.93;;;10.20;91.50;;;;;;4973889;28;20025;-68
2021/11/27 12:15:48;;;;;;;20.13;8.00;;;10.20;91.70;;;;;;4977428;28;20035;-67
2021/11/27 12:18:20;;;;;;;22.92;5.97;;;10.10;91.90;;;;;;4977209;28;20039;-69
2021/11/27 12:20:56;;;;;;;18.05;5.95;;;10.10;91.90;;;;;;4977219;28;20023;-69
2021/11/27 12:23:28;;;;;;;14.23;5.73;;;10.10;91.90;;;;;;4977152;28;20058;-68
2021/11/27 12:28:40;;;;;;;16.17;5.07;;;10.10;92.10;;;;;;4974738;28;20042;-67
2021/11/27 12:31:11;;;;;;;10.88;4.40;;;10.10;91.90;;;;;;4973901;28;20514;-68
2021/11/27 12:33:40;;;;;;;11.13;3.83;;;10.10;92.20;;;;;;4974337;28;20042;-68
2021/11/27 12:36:06;;;;;;;14.15;4.10;;;10.20;92.40;;;;;;4959279;28;20027;-68
2021/11/27 12:38:33;;;;;;;12.63;3.93;;;10.20;92.40;;;;;;4976875;28;20035;-68
2021/11/27 12:40:59;;;;;;;16.63;6.33;;;10.20;92.30;;;;;;4976571;28;20113;-68
2021/11/27 12:43:26;;;;;;;892.47;82.78;;;10.30;92.40;;;;;;4976486;28;20572;-68
2021/11/27 12:45:57;;;;;;;258.58;16.73;;;10.30;92.30;;;;;;4976576;28;20022;-68
2021/11/27 12:48:28;;;;;;;861.67;42.28;;;10.30;92.70;;;;;;4976507;28;20043;-68
2021/11/27 12:51:16;;;;;;;65.10;6.47;;;10.30;92.40;;;;;;4975973;28;20026;-68
2021/11/27 12:54:00;;;;;;;13.90;6.00;;;10.30;92.40;;;;;;4976465;28;20399;-68